Time;durP1;ratioP1;P1;durP2;ratioP2;P2;SDS_P1;SDS_P2;PMS_P1;PMS_P2;Temp;Humidity;BMP_temperature;BMP_pressure;BME280_temperature;BME280_humidity;BME280_pressure;Samples;Min_cycle;Max_cycle;Signal;HPM_P1;HPM_P2
2023/04/14 00:00:26;;;;;;;9.90;4.30;;;;;;;11.73;67.35;99743.93;105182;1258;64986;-55
2023/04/14 00:03:08;;;;;;;7.50;4.20;;;;;;;11.72;67.56;99748.59;105762;1260;59737;-55
2023/04/14 00:05:38;;;;;;;7.50;3.80;;;;;;;11.64;67.99;99747.91;105726;1257;59775;-55
2023/04/14 00:08:10;;;;;;;8.50;4.70;;;;;;;11.56;68.55;99749.03;105226;1260;65391;-56
2023/04/14 00:10:41;;;;;;;8.40;4.70;;;;;;;11.52;68.92;99749.75;105514;1260;61349;-55
2023/04/14 00:13:09;;;;;;;8.10;4.10;;;;;;;11.57;68.94;99750.37;105242;1257;64871;-55
2023/04/14 00:15:40;;;;;;;7.10;4.60;;;;;;;11.61;68.94;99748.73;105234;1257;59730;-54
2023/04/14 00:18:10;;;;;;;8.00;4.20;;;;;;;11.65;69.12;99748.46;105305;1257;60377;-54
2023/04/14 00:20:39;;;;;;;9.10;4.90;;;;;;;11.66;69.22;99746.63;105177;1260;65416;-54
2023/04/14 00:23:10;;;;;;;7.00;4.70;;;;;;;11.62;69.17;99746.73;105196;1257;62408;-57
2023/04/14 00:25:38;;;;;;;8.50;5.20;;;;;;;11.57;69.30;99747.83;105271;1260;65298;-55
2023/04/14 00:28:07;;;;;;;10.10;4.60;;;;;;;11.58;69.31;99746.74;105281;1258;59671;-55
2023/04/14 00:30:38;;;;;;;8.20;5.20;;;;;;;11.61;69.37;99748.20;105175;1259;60420;-55
2023/04/14 00:33:08;;;;;;;9.00;5.20;;;;;;;11.60;69.47;99748.77;105792;1257;64411;-55
2023/04/14 00:35:36;;;;;;;8.50;5.50;;;;;;;11.59;69.70;99746.79;105049;1257;62521;-55
2023/04/14 00:38:05;;;;;;;8.20;5.50;;;;;;;11.58;69.61;99740.20;105262;1262;64919;-55
2023/04/14 00:40:33;;;;;;;10.50;6.10;;;;;;;11.59;69.49;99741.33;105201;1256;59813;-55
2023/04/14 00:43:02;;;;;;;8.60;5.80;;;;;;;11.60;69.34;99744.10;105294;1258;59833;-56
2023/04/14 00:45:31;;;;;;;8.00;5.20;;;;;;;11.58;69.25;99746.69;105451;1257;65398;-55
2023/04/14 00:47:59;;;;;;;6.50;4.10;;;;;;;11.55;68.86;99748.02;105388;1263;62329;-55
2023/04/14 00:50:27;;;;;;;7.00;4.30;;;;;;;11.48;68.54;99748.73;105247;1262;64721;-53
2023/04/14 00:52:57;;;;;;;9.40;4.00;;;;;;;11.45;68.31;99749.15;105492;1257;59720;-53
2023/04/14 00:55:26;;;;;;;7.80;4.50;;;;;;;11.46;68.08;99749.08;105277;1261;61285;-55
2023/04/14 00:57:55;;;;;;;6.80;4.10;;;;;;;11.45;68.20;99748.80;105256;1259;65261;-55
2023/04/14 01:00:24;;;;;;;7.10;4.20;;;;;;;11.41;68.05;99752.69;105343;1258;62929;-54
2023/04/14 01:02:53;;;;;;;7.20;3.70;;;;;;;11.41;67.85;99753.44;105268;1257;74211;-55
2023/04/14 01:05:22;;;;;;;7.50;4.10;;;;;;;11.45;67.59;99752.48;105053;1257;59717;-54
2023/04/14 01:07:53;;;;;;;7.90;3.90;;;;;;;11.39;67.64;99755.33;105318;1257;59641;-55
2023/04/14 01:10:23;;;;;;;6.50;3.90;;;;;;;11.39;67.71;99756.96;105438;1262;65400;-55
2023/04/14 01:13:15;;;;;;;8.50;5.00;;;;;;;11.38;67.77;99762.82;105258;1257;71328;-55
2023/04/14 01:15:51;;;;;;;9.40;5.00;;;;;;;11.34;67.57;99764.92;105254;1263;63737;-55
2023/04/14 01:18:59;;;;;;;9.90;4.50;;;;;;;11.29;67.67;99765.42;105569;1256;59649;-56
2023/04/14 01:21:31;;;;;;;8.00;4.80;;;;;;;11.35;67.50;99766.77;104578;1266;59688;-55
2023/04/14 01:24:15;;;;;;;9.80;4.70;;;;;;;11.40;67.33;99763.89;105208;1257;65113;-56
2023/04/14 01:26:43;;;;;;;7.80;4.70;;;;;;;11.34;67.54;99769.33;105126;1257;62329;-56
2023/04/14 01:29:18;;;;;;;9.30;4.50;;;;;;;11.31;67.74;99765.74;104990;1262;65005;-56
2023/04/14 01:31:54;;;;;;;9.00;5.20;;;;;;;11.27;67.95;99764.84;105141;1257;59662;-57
2023/04/14 01:34:32;;;;;;;9.10;5.00;;;;;;;11.21;68.01;99763.99;105617;1257;59765;-55
2023/04/14 01:37:06;;;;;;;6.50;4.50;;;;;;;11.17;68.30;99759.83;105148;1259;65255;-54
2023/04/14 01:39:37;;;;;;;9.50;5.30;;;;;;;11.17;68.87;99756.73;105403;1260;61842;-55
2023/04/14 01:42:11;;;;;;;8.40;4.60;;;;;;;11.12;69.29;99763.85;105233;1262;65021;-55
2023/04/14 01:44:40;;;;;;;7.60;4.90;;;;;;;11.05;69.81;99764.65;105350;1257;59899;-55
2023/04/14 01:47:11;;;;;;;7.70;4.30;;;;;;;10.96;70.29;99768.91;105182;1257;59742;-55
2023/04/14 01:49:40;;;;;;;9.40;4.80;;;;;;;10.91;70.81;99770.09;105340;1257;65387;-55
2023/04/14 01:52:09;;;;;;;9.20;5.20;;;;;;;10.91;71.08;99771.38;105681;1261;62325;-55
2023/04/14 01:54:40;;;;;;;10.50;5.50;;;;;;;10.91;71.14;99767.52;105680;1257;64312;-55
2023/04/14 01:57:10;;;;;;;10.50;5.90;;;;;;;10.92;71.24;99765.61;105353;1257;59748;-55
2023/04/14 01:59:40;;;;;;;8.20;4.90;;;;;;;10.90;71.27;99766.74;105157;1263;59742;-55
2023/04/14 02:02:10;;;;;;;9.90;5.10;;;;;;;10.87;71.28;99770.65;105184;1259;65091;-55
2023/04/14 02:04:38;;;;;;;8.30;4.70;;;;;;;10.86;71.30;99765.27;105210;1257;62645;-55
2023/04/14 02:07:07;;;;;;;10.00;4.80;;;;;;;10.87;71.04;99769.45;105263;1261;65169;-55
2023/04/14 02:09:35;;;;;;;10.10;4.70;;;;;;;10.87;71.02;99769.91;105507;1257;59659;-55
2023/04/14 02:12:04;;;;;;;8.40;5.50;;;;;;;10.86;71.03;99768.27;105168;1262;59724;-56
2023/04/14 02:14:32;;;;;;;8.90;5.60;;;;;;;10.84;70.99;99769.57;105232;1261;65610;-56
2023/04/14 02:17:01;;;;;;;7.80;4.80;;;;;;;10.81;70.85;99771.04;105368;1257;62838;-56
2023/04/14 02:19:30;;;;;;;9.30;5.60;;;;;;;10.82;70.69;99777.42;105563;1260;74424;-54
2023/04/14 02:22:01;;;;;;;9.40;5.40;;;;;;;10.85;70.49;99781.14;105068;1257;59762;-54
2023/04/14 02:24:31;;;;;;;8.60;5.60;;;;;;;10.90;70.11;99783.16;105256;1257;59715;-55
2023/04/14 02:27:06;;;;;;;10.20;5.10;;;;;;;10.93;69.82;99785.52;105237;1257;65334;-56
2023/04/14 02:29:34;;;;;;;8.60;5.30;;;;;;;10.95;69.62;99787.85;105605;1257;63714;-56
2023/04/14 02:32:04;;;;;;;10.00;5.90;;;;;;;10.93;69.46;99790.25;105422;1262;64485;-55
2023/04/14 02:34:46;;;;;;;9.80;5.20;;;;;;;10.93;69.45;99791.14;105404;1257;60450;-55
2023/04/14 02:37:17;;;;;;;9.40;5.20;;;;;;;10.97;69.25;99800.75;105400;1257;59753;-55
2023/04/14 02:39:50;;;;;;;7.50;5.50;;;;;;;11.03;69.11;99798.82;105450;1257;65440;-55
2023/04/14 02:42:19;;;;;;;8.60;5.70;;;;;;;11.06;68.93;99802.77;105182;1257;62931;-55
2023/04/14 02:44:50;;;;;;;9.70;5.90;;;;;;;11.06;68.60;99801.98;104956;1257;65026;-55
2023/04/14 02:47:31;;;;;;;13.50;5.80;;;;;;;11.04;68.57;99803.35;105187;1257;61661;-55
2023/04/14 02:50:01;;;;;;;7.90;5.10;;;;;;;11.03;68.34;99808.92;105361;1258;60504;-54
2023/04/14 02:52:30;;;;;;;9.30;6.10;;;;;;;10.97;68.29;99807.98;105401;1257;66472;-54
2023/04/14 02:54:59;;;;;;;10.90;5.60;;;;;;;10.97;68.11;99813.96;105439;1257;62764;-54
2023/04/14 02:57:28;;;;;;;8.10;5.50;;;;;;;10.97;68.23;99819.54;104990;1263;64869;-54
2023/04/14 02:59:57;;;;;;;8.80;5.90;;;;;;;11.00;68.22;99819.91;105228;1257;60537;-55
2023/04/14 03:02:28;;;;;;;8.40;6.00;;;;;;;10.99;68.25;99820.63;105497;1257;60403;-54
2023/04/14 03:05:04;;;;;;;12.50;6.30;;;;;;;10.99;68.37;99825.42;105236;1257;65202;-54
2023/04/14 03:07:49;;;;;;;8.00;5.30;;;;;;;10.96;68.43;99823.18;105349;1259;63003;-55
2023/04/14 03:10:18;;;;;;;9.00;5.80;;;;;;;10.97;68.41;99825.91;105461;1257;64833;-55
2023/04/14 03:12:47;;;;;;;10.20;6.00;;;;;;;10.97;68.47;99828.35;105244;1263;60534;-55
2023/04/14 03:15:16;;;;;;;10.90;6.80;;;;;;;10.95;68.56;99831.31;105827;1257;60535;-55
2023/04/14 03:17:47;;;;;;;10.10;5.80;;;;;;;10.91;68.74;99834.28;105217;1254;68085;-55
2023/04/14 03:20:18;;;;;;;9.20;6.10;;;;;;;10.88;68.95;99836.73;105474;1254;61329;-55
2023/04/14 03:22:59;;;;;;;8.40;5.90;;;;;;;10.90;69.20;99839.00;105326;1259;64092;-55
2023/04/14 03:25:35;;;;;;;9.00;6.10;;;;;;;10.93;69.18;99841.70;106251;1258;60469;-54
2023/04/14 03:28:08;;;;;;;10.90;6.50;;;;;;;10.98;69.23;99846.03;105631;1258;60498;-54
2023/04/14 03:30:40;;;;;;;9.60;6.30;;;;;;;10.99;69.29;99844.48;105582;1254;73323;-54
2023/04/14 03:33:13;;;;;;;10.00;6.80;;;;;;;10.98;69.18;99844.77;105325;1254;62493;-54
2023/04/14 03:35:42;;;;;;;10.10;6.70;;;;;;;10.94;69.14;99842.98;105332;1259;64586;-54
2023/04/14 03:38:10;;;;;;;9.10;6.30;;;;;;;10.95;69.18;99848.55;105278;1253;60566;-55
2023/04/14 03:40:41;;;;;;;10.00;6.80;;;;;;;10.95;69.08;99846.05;105399;1259;61778;-55
2023/04/14 03:43:11;;;;;;;9.90;6.30;;;;;;;10.96;69.24;99846.86;105342;1258;66648;-54
2023/04/14 03:45:46;;;;;;;10.50;6.60;;;;;;;10.96;69.45;99845.94;105704;1254;62924;-55
2023/04/14 03:48:18;;;;;;;9.50;6.70;;;;;;;10.93;69.57;99849.08;105724;1254;65042;-54
2023/04/14 03:50:50;;;;;;;9.20;6.60;;;;;;;10.91;69.53;99847.48;105408;1253;60476;-55
2023/04/14 03:53:20;;;;;;;10.70;7.00;;;;;;;10.91;69.52;99849.08;105508;1254;60495;-55
2023/04/14 03:55:50;;;;;;;10.70;7.10;;;;;;;10.91;69.44;99857.61;105401;1253;65204;-54
2023/04/14 03:58:23;;;;;;;8.80;6.90;;;;;;;10.91;69.70;99858.02;105625;1254;62348;-54
2023/04/14 04:00:52;;;;;;;11.10;7.20;;;;;;;10.89;69.90;99861.33;105797;1254;72508;-54
2023/04/14 04:03:20;;;;;;;12.80;7.30;;;;;;;10.85;69.96;99860.65;105544;1259;61231;-54
2023/04/14 04:05:49;;;;;;;10.00;7.10;;;;;;;10.84;70.03;99866.25;105465;1254;60601;-54
2023/04/14 04:08:17;;;;;;;10.30;7.10;;;;;;;10.85;70.02;99870.32;105491;1259;66418;-54
2023/04/14 04:10:46;;;;;;;10.90;6.80;;;;;;;10.88;70.13;99874.80;105349;1254;62903;-54
2023/04/14 04:13:18;;;;;;;15.80;11.30;;;;;;;10.90;70.35;99878.07;105450;1254;64717;-54
2023/04/14 04:15:46;;;;;;;11.50;8.10;;;;;;;10.92;70.32;99881.45;109103;1253;59256;-55
2023/04/14 04:18:16;;;;;;;13.00;8.00;;;;;;;10.92;70.28;99879.84;106232;1252;60559;-54
2023/04/14 04:20:45;;;;;;;13.90;7.60;;;;;;;10.93;70.17;99881.54;105489;1257;66258;-54
2023/04/14 04:23:16;;;;;;;14.30;8.00;;;;;;;10.93;70.06;99879.40;104888;1254;63341;-54
2023/04/14 04:25:44;;;;;;;11.50;8.20;;;;;;;10.94;69.97;99878.48;105850;1254;64827;-54
2023/04/14 04:28:25;;;;;;;9.50;7.00;;;;;;;10.93;70.11;99879.56;105515;1254;62761;-55
2023/04/14 04:30:55;;;;;;;12.00;8.80;;;;;;;10.93;70.16;99877.35;105689;1259;60389;-54
2023/04/14 04:33:25;;;;;;;12.00;8.50;;;;;;;10.92;70.15;99881.95;105006;1262;66474;-54
2023/04/14 04:35:53;;;;;;;10.30;7.70;;;;;;;10.95;70.06;99886.60;108231;1253;63043;-55
2023/04/14 04:38:23;;;;;;;13.10;8.60;;;;;;;11.00;69.91;99885.98;105580;1260;64016;-54
2023/04/14 04:40:52;;;;;;;13.90;8.90;;;;;;;11.02;69.81;99890.77;105204;1262;60508;-54
2023/04/14 04:43:28;;;;;;;12.00;9.20;;;;;;;11.01;69.84;99894.05;105198;1256;60467;-55
2023/04/14 04:45:57;;;;;;;11.20;8.90;;;;;;;10.97;69.93;99894.16;107203;1254;65971;-55
2023/04/14 04:48:26;;;;;;;13.00;8.10;;;;;;;10.96;69.98;99897.26;105718;1257;62239;-54
2023/04/14 04:50:55;;;;;;;12.50;9.10;;;;;;;10.96;70.00;99898.07;105861;1257;65026;-54
2023/04/14 04:53:23;;;;;;;11.40;8.50;;;;;;;11.01;69.96;99902.75;106611;1253;60362;-54
2023/04/14 04:55:54;;;;;;;12.10;8.90;;;;;;;11.08;70.02;99904.83;106356;1259;60440;-54
2023/04/14 04:58:22;;;;;;;16.30;9.70;;;;;;;11.11;69.95;99909.09;105706;1253;65366;-54
2023/04/14 05:00:53;;;;;;;14.10;10.30;;;;;;;11.11;69.83;99910.50;105834;1253;62565;-53
2023/04/14 05:03:23;;;;;;;13.30;8.80;;;;;;;11.09;69.78;99909.41;105626;1258;64838;-54
2023/04/14 05:05:51;;;;;;;11.60;8.90;;;;;;;11.10;69.60;99913.05;105386;1258;60744;-54
2023/04/14 05:08:20;;;;;;;12.30;9.30;;;;;;;11.13;69.62;99912.88;105251;1259;60533;-55
2023/04/14 05:10:50;;;;;;;12.30;8.90;;;;;;;11.19;69.36;99915.08;105303;1258;66227;-54
2023/04/14 05:13:21;;;;;;;13.00;9.80;;;;;;;11.18;69.35;99917.90;106546;1253;61958;-55
2023/04/14 05:15:50;;;;;;;13.20;9.70;;;;;;;11.15;69.36;99920.84;105738;1254;65057;-54
2023/04/14 05:18:20;;;;;;;14.20;10.00;;;;;;;11.13;69.38;99920.46;105269;1255;60605;-54
2023/04/14 05:20:48;;;;;;;12.60;9.10;;;;;;;11.13;69.39;99922.26;105980;1255;60323;-54
2023/04/14 05:23:17;;;;;;;14.30;9.50;;;;;;;11.16;69.28;99929.36;105776;1256;66279;-54
2023/04/14 05:25:50;;;;;;;11.10;9.30;;;;;;;11.19;69.32;99935.37;105878;1253;62624;-54
2023/04/14 05:28:22;;;;;;;14.10;10.40;;;;;;;11.19;69.34;99937.48;105679;1254;65060;-54
2023/04/14 05:30:50;;;;;;;12.80;10.40;;;;;;;11.18;69.41;99939.17;105756;1258;60576;-54
2023/04/14 05:33:20;;;;;;;14.30;10.40;;;;;;;11.19;69.42;99937.70;107705;1253;60488;-54
2023/04/14 05:35:52;;;;;;;13.50;9.80;;;;;;;11.24;69.24;99941.46;107488;1254;66167;-54
2023/04/14 05:38:20;;;;;;;14.00;10.00;;;;;;;11.27;68.96;99941.39;105453;1254;63016;-54
2023/04/14 05:40:49;;;;;;;12.30;9.70;;;;;;;11.28;68.92;99941.02;105404;1253;65048;-54
2023/04/14 05:43:18;;;;;;;13.60;10.30;;;;;;;11.26;68.94;99937.16;106037;1257;60535;-54
2023/04/14 05:45:47;;;;;;;14.30;10.40;;;;;;;11.24;69.01;99937.22;106062;1252;60559;-54
2023/04/14 05:48:16;;;;;;;14.10;9.80;;;;;;;11.21;68.94;99937.84;106847;1254;66162;-54
2023/04/14 05:50:45;;;;;;;12.90;10.10;;;;;;;11.19;69.08;99935.55;106977;1256;61719;-54
2023/04/14 05:53:14;;;;;;;14.30;9.60;;;;;;;11.23;69.09;99939.29;105225;1256;65686;-53
2023/04/14 05:55:42;;;;;;;14.70;9.90;;;;;;;11.25;68.77;99942.58;105093;1257;60783;-53
2023/04/14 05:58:11;;;;;;;12.20;8.90;;;;;;;11.29;68.85;99945.70;105218;1254;60417;-54
2023/04/14 06:00:42;;;;;;;11.50;9.30;;;;;;;11.37;69.08;99953.48;107542;1253;66172;-55
2023/04/14 06:03:30;;;;;;;14.20;9.90;;;;;;;11.42;69.04;99958.45;105050;1256;62763;-55
2023/04/14 06:05:59;;;;;;;17.20;10.30;;;;;;;11.44;68.82;99961.98;105431;1256;64915;-55
2023/04/14 06:08:29;;;;;;;12.90;10.00;;;;;;;11.42;68.72;99964.63;105180;1255;60515;-55
2023/04/14 06:10:58;;;;;;;12.60;9.90;;;;;;;11.44;68.74;99966.38;105819;1256;60476;-54
2023/04/14 06:13:26;;;;;;;12.60;10.40;;;;;;;11.49;68.49;99969.40;105430;1256;66089;-54
2023/04/14 06:15:59;;;;;;;15.10;10.90;;;;;;;11.48;68.39;99970.34;105691;1257;62321;-54
2023/04/14 06:18:28;;;;;;;13.70;10.80;;;;;;;11.44;68.37;99968.10;106557;1254;64735;-55
2023/04/14 06:20:56;;;;;;;13.40;10.70;;;;;;;11.38;68.62;99966.88;105926;1257;62806;-55
2023/04/14 06:23:25;;;;;;;14.10;10.50;;;;;;;11.35;68.62;99971.86;105811;1254;60777;-55
2023/04/14 06:25:56;;;;;;;14.90;9.60;;;;;;;11.40;68.82;99972.36;105917;1254;76066;-55
2023/04/14 06:28:25;;;;;;;12.40;9.90;;;;;;;11.47;68.88;99973.96;105396;1256;62793;-54
2023/04/14 06:30:53;;;;;;;21.80;9.50;;;;;;;11.47;68.61;99973.95;105451;1254;65034;-54
2023/04/14 06:33:21;;;;;;;13.80;10.70;;;;;;;11.41;68.79;99970.48;105922;1256;60529;-54
2023/04/14 06:35:50;;;;;;;13.10;9.90;;;;;;;11.39;69.16;99974.20;105958;1254;60440;-54
2023/04/14 06:38:18;;;;;;;12.30;9.50;;;;;;;11.43;69.36;99978.39;105437;1256;66365;-52
2023/04/14 06:40:47;;;;;;;13.90;10.30;;;;;;;11.48;69.22;99980.92;105423;1256;62626;-53
2023/04/14 06:43:18;;;;;;;14.10;10.50;;;;;;;11.49;69.07;99983.84;105363;1256;64680;-54
2023/04/14 06:45:49;;;;;;;13.90;10.40;;;;;;;11.45;69.33;99984.02;105421;1254;60567;-53
2023/04/14 06:48:18;;;;;;;14.40;10.70;;;;;;;11.43;69.37;99985.06;108107;1254;59292;-53
2023/04/14 06:50:54;;;;;;;14.20;10.90;;;;;;;11.40;69.46;99988.33;105454;1256;66197;-52
2023/04/14 06:53:24;;;;;;;14.30;11.10;;;;;;;11.42;69.48;99989.39;105893;1256;61547;-53
2023/04/14 06:55:59;;;;;;;15.40;10.30;;;;;;;11.45;69.51;99989.39;105552;1256;64834;-53
2023/04/14 06:58:29;;;;;;;11.90;9.60;;;;;;;11.49;69.46;99991.02;105565;1254;60608;-53
2023/04/14 07:01:00;;;;;;;15.50;11.50;;;;;;;11.46;69.56;99993.71;105935;1252;60516;-53
2023/04/14 07:03:29;;;;;;;14.60;10.60;;;;;;;11.43;69.52;99995.08;105991;1257;66224;-53
2023/04/14 07:06:10;;;;;;;14.40;9.20;;;;;;;11.38;69.58;100004.25;106642;1256;61632;-52
2023/04/14 07:08:39;;;;;;;14.10;10.40;;;;;;;11.41;69.53;100005.81;105698;1256;63845;-52
2023/04/14 07:11:09;;;;;;;14.90;10.50;;;;;;;11.48;69.62;100004.48;108681;1256;59080;-53
2023/04/14 07:13:38;;;;;;;12.60;10.50;;;;;;;11.52;69.57;100006.00;106280;1254;60543;-53
2023/04/14 07:16:08;;;;;;;14.50;10.50;;;;;;;11.52;69.34;100008.77;105659;1254;64865;-52
2023/04/14 07:18:37;;;;;;;12.50;10.00;;;;;;;11.50;69.37;100012.22;105507;1254;62799;-52
2023/04/14 07:21:05;;;;;;;12.70;9.90;;;;;;;11.46;69.51;100016.54;105571;1256;64768;-52
2023/04/14 07:23:39;;;;;;;13.40;9.30;;;;;;;11.52;69.61;100012.55;105504;1254;60511;-53
2023/04/14 07:26:07;;;;;;;12.80;9.20;;;;;;;11.55;69.44;100014.86;105559;1254;60431;-52
2023/04/14 07:28:36;;;;;;;18.00;10.30;;;;;;;11.60;69.45;100016.21;105406;1256;65928;-52
2023/04/14 07:31:09;;;;;;;14.10;9.80;;;;;;;11.61;69.35;100015.75;106407;1253;62261;-54
2023/04/14 07:33:39;;;;;;;14.10;10.60;;;;;;;11.59;69.19;100016.70;105583;1254;64762;-54
2023/04/14 07:36:08;;;;;;;14.80;10.50;;;;;;;11.53;69.46;100018.44;106345;1254;60542;-52
2023/04/14 07:38:36;;;;;;;13.30;10.20;;;;;;;11.50;69.64;100022.34;106621;1252;60322;-53
2023/04/14 07:41:05;;;;;;;13.20;10.00;;;;;;;11.56;69.79;100016.94;105479;1259;66362;-52
2023/04/14 07:43:34;;;;;;;13.00;9.70;;;;;;;11.62;69.58;100019.52;105785;1254;62433;-53
2023/04/14 07:46:04;;;;;;;13.90;10.90;;;;;;;11.62;69.50;100018.82;105731;1254;65561;-53
2023/04/14 07:48:36;;;;;;;13.90;10.90;;;;;;;11.59;69.39;100016.95;106329;1256;60766;-52
2023/04/14 07:51:08;;;;;;;15.30;9.90;;;;;;;11.55;69.33;100016.83;105535;1256;61078;-52
2023/04/14 07:53:42;;;;;;;13.50;9.40;;;;;;;11.59;69.52;100012.58;105480;1254;65386;-53
2023/04/14 07:56:11;;;;;;;15.00;11.20;;;;;;;11.69;69.60;100013.11;105569;1256;63567;-53
2023/04/14 07:58:41;;;;;;;11.40;9.90;;;;;;;11.75;69.71;100014.52;106278;1256;64748;-53
2023/04/14 08:01:10;;;;;;;15.10;10.20;;;;;;;11.76;69.65;100017.08;105500;1257;61871;-53
2023/04/14 08:03:39;;;;;;;14.00;10.30;;;;;;;11.72;69.58;100019.19;105587;1254;60373;-53
2023/04/14 08:06:11;;;;;;;12.80;10.10;;;;;;;11.70;69.69;100017.90;105728;1256;65902;-53
2023/04/14 08:08:42;;;;;;;12.20;9.50;;;;;;;11.75;69.62;100021.90;105622;1254;62622;-53
2023/04/14 08:11:11;;;;;;;15.80;10.90;;;;;;;11.82;69.57;100027.36;106161;1256;64813;-53
2023/04/14 08:13:39;;;;;;;15.10;10.40;;;;;;;11.85;69.21;100030.11;105817;1254;60451;-54
2023/04/14 08:16:08;;;;;;;14.50;11.40;;;;;;;11.83;69.22;100030.98;105421;1254;60421;-53
2023/04/14 08:18:38;;;;;;;16.50;11.20;;;;;;;11.82;69.15;100032.53;106312;1256;66134;-53
2023/04/14 08:21:06;;;;;;;13.60;10.30;;;;;;;11.79;68.99;100035.59;106302;1254;64441;-53
2023/04/14 08:23:38;;;;;;;12.80;10.30;;;;;;;11.80;68.94;100039.58;105471;1257;64543;-53
2023/04/14 08:26:07;;;;;;;13.50;10.20;;;;;;;11.82;69.09;100040.05;106260;1253;60558;-53
2023/04/14 08:28:35;;;;;;;13.90;9.90;;;;;;;11.86;69.24;100043.67;107873;1255;60434;-53
2023/04/14 08:31:04;;;;;;;14.80;10.30;;;;;;;11.94;69.35;100048.67;105506;1257;66376;-52
2023/04/14 08:33:33;;;;;;;15.30;10.70;;;;;;;12.01;69.22;100048.39;105564;1254;62292;-53
2023/04/14 08:36:02;;;;;;;14.30;10.60;;;;;;;12.04;69.24;100049.27;105670;1257;65296;-53
2023/04/14 08:38:35;;;;;;;15.70;11.20;;;;;;;12.09;68.93;100047.86;105607;1254;61708;-53
2023/04/14 08:41:04;;;;;;;12.70;9.40;;;;;;;12.11;68.94;100044.95;106472;1254;60551;-53
2023/04/14 08:43:33;;;;;;;13.70;10.70;;;;;;;12.18;68.66;100040.15;105196;1259;66205;-53
2023/04/14 08:46:03;;;;;;;14.20;10.90;;;;;;;12.23;68.63;100035.64;107056;1255;62630;-53
2023/04/14 08:48:32;;;;;;;13.20;10.50;;;;;;;12.26;68.66;100030.48;105694;1256;65026;-54
2023/04/14 08:51:01;;;;;;;17.50;11.80;;;;;;;12.27;68.68;100027.89;105176;1254;60498;-53
2023/04/14 08:53:30;;;;;;;15.70;12.70;;;;;;;12.27;68.68;100028.58;105176;1254;60888;-53
2023/04/14 08:56:02;;;;;;;14.30;11.50;;;;;;;12.26;68.48;100028.86;104995;1256;66409;-53
2023/04/14 08:58:30;;;;;;;13.60;10.50;;;;;;;12.29;68.54;100029.30;105573;1256;61639;-53
2023/04/14 09:01:00;;;;;;;13.10;10.50;;;;;;;12.36;68.57;100030.23;106495;1256;64981;-54
2023/04/14 09:03:30;;;;;;;14.60;10.50;;;;;;;12.44;68.53;100027.67;107976;1259;59037;-54
2023/04/14 09:05:58;;;;;;;12.20;10.60;;;;;;;12.52;68.24;100029.77;106438;1254;60475;-54
2023/04/14 09:08:38;;;;;;;15.50;11.30;;;;;;;12.51;67.88;100034.27;105686;1257;66505;-54
2023/04/14 09:11:07;;;;;;;13.50;10.80;;;;;;;12.45;68.06;100035.18;105447;1256;62182;-53
2023/04/14 09:13:35;;;;;;;14.00;10.90;;;;;;;12.43;68.19;100037.11;105422;1259;64742;-54
2023/04/14 09:16:04;;;;;;;15.50;10.90;;;;;;;12.47;68.07;100039.73;105426;1256;60557;-55
2023/04/14 09:18:32;;;;;;;14.90;11.10;;;;;;;12.51;68.08;100044.98;105574;1255;60501;-53
2023/04/14 09:21:03;;;;;;;13.30;10.70;;;;;;;12.57;67.74;100043.20;105602;1256;65874;-53
2023/04/14 09:23:51;;;;;;;13.20;10.90;;;;;;;12.61;67.74;100046.66;105433;1257;61435;-53
2023/04/14 09:26:19;;;;;;;12.00;10.50;;;;;;;12.64;67.51;100050.96;105953;1256;63757;-54
2023/04/14 09:28:47;;;;;;;17.80;11.20;;;;;;;12.64;67.47;100053.30;107010;1256;60443;-54
2023/04/14 09:31:18;;;;;;;13.40;10.60;;;;;;;12.63;67.17;100054.79;105349;1256;60683;-53
2023/04/14 09:33:49;;;;;;;12.40;10.30;;;;;;;12.66;67.15;100056.62;107912;1254;65938;-54
2023/04/14 09:36:22;;;;;;;13.30;9.40;;;;;;;12.73;66.96;100056.00;106003;1254;71833;-53
2023/04/14 09:38:51;;;;;;;11.70;9.80;;;;;;;12.73;66.63;100058.60;105444;1256;64878;-54
2023/04/14 09:41:21;;;;;;;12.50;11.10;;;;;;;12.69;66.51;100059.15;105485;1257;60454;-53
2023/04/14 09:43:51;;;;;;;13.60;11.10;;;;;;;12.65;66.22;100061.15;105994;1256;60558;-53
2023/04/14 09:46:20;;;;;;;15.60;10.60;;;;;;;12.61;66.17;100065.69;105867;1254;66157;-53
2023/04/14 09:48:48;;;;;;;14.70;10.60;;;;;;;12.63;66.28;100068.32;106772;1256;61492;-54
2023/04/14 09:51:20;;;;;;;12.70;10.30;;;;;;;12.64;66.20;100066.80;105998;1257;64886;-55
2023/04/14 09:53:51;;;;;;;15.10;10.70;;;;;;;12.66;66.41;100071.42;105950;1258;61211;-53
2023/04/14 09:56:25;;;;;;;16.40;10.80;;;;;;;12.65;66.47;100073.06;105614;1258;60434;-55
2023/04/14 09:59:00;;;;;;;13.60;10.60;;;;;;;12.65;66.62;100075.50;106596;1255;66052;-55
2023/04/14 10:01:32;;;;;;;16.90;10.70;;;;;;;12.63;66.25;100078.73;105591;1254;62768;-53
2023/04/14 10:04:02;;;;;;;12.00;9.70;;;;;;;12.63;66.28;100078.67;106383;1254;65211;-54
2023/04/14 10:06:31;;;;;;;12.00;9.50;;;;;;;12.70;66.36;100079.85;105629;1256;60453;-53
2023/04/14 10:08:59;;;;;;;16.00;10.50;;;;;;;12.80;66.51;100082.80;105689;1255;60559;-54
2023/04/14 10:11:31;;;;;;;13.50;10.70;;;;;;;12.86;66.32;100083.30;105760;1257;66686;-53
2023/04/14 10:14:02;;;;;;;15.90;10.90;;;;;;;12.87;66.46;100080.40;105690;1256;61725;-54
2023/04/14 10:16:32;;;;;;;14.00;10.40;;;;;;;12.88;66.54;100079.54;105697;1257;65147;-54
2023/04/14 10:19:01;;;;;;;12.90;10.60;;;;;;;12.91;66.65;100086.01;107135;1253;60438;-54
2023/04/14 10:21:35;;;;;;;13.90;10.10;;;;;;;12.94;66.41;100084.94;105709;1254;60470;-54
2023/04/14 10:24:03;;;;;;;12.10;10.20;;;;;;;12.99;66.26;100087.70;105584;1256;66096;-54
2023/04/14 10:26:33;;;;;;;14.40;10.50;;;;;;;12.98;66.32;100090.55;105449;1257;62690;-54
2023/04/14 10:29:02;;;;;;;14.60;10.80;;;;;;;12.96;66.41;100093.26;105377;1254;64920;-54
2023/04/14 10:31:35;;;;;;;13.40;10.60;;;;;;;12.92;66.41;100097.34;105322;1260;60453;-54
2023/04/14 10:34:11;;;;;;;15.70;10.60;;;;;;;12.88;66.60;100104.34;106917;1257;60545;-54
2023/04/14 10:36:40;;;;;;;15.50;9.60;;;;;;;12.89;66.59;100107.33;106057;1259;66214;-53
2023/04/14 10:39:10;;;;;;;12.50;8.70;;;;;;;12.93;66.03;100108.14;106814;1259;63026;-53
2023/04/14 10:41:41;;;;;;;13.70;9.00;;;;;;;12.95;65.51;100107.08;106223;1259;65126;-54
2023/04/14 10:44:36;;;;;;;11.30;9.20;;;;;;;12.95;65.43;100106.23;105305;1255;60501;-54
2023/04/14 10:47:06;;;;;;;12.50;9.30;;;;;;;12.96;65.15;100106.44;108800;1254;204099;-55
2023/04/14 10:51:09;;;;;;;13.60;8.80;;;;;;;12.81;65.59;100108.73;102409;1290;600721;-55
2023/04/14 10:53:46;;;;;;;11.20;9.20;;;;;;;12.94;65.07;100110.64;105478;1263;59282;-55
2023/04/14 10:56:15;;;;;;;12.60;8.70;;;;;;;12.99;64.76;100109.98;104823;1263;59397;-55
2023/04/14 10:58:53;;;;;;;16.40;9.40;;;;;;;13.03;64.27;100110.04;106146;1263;64326;-54
2023/04/14 11:01:22;;;;;;;13.90;8.90;;;;;;;12.99;64.16;100114.95;106890;1266;62880;-54
2023/04/14 11:03:53;;;;;;;14.70;9.30;;;;;;;12.91;64.19;100115.39;105184;1269;183223;-52
2023/04/14 11:06:46;;;;;;;13.40;9.60;;;;;;;12.84;64.41;100114.95;105317;1263;59300;-56
2023/04/14 11:09:31;;;;;;;14.30;9.80;;;;;;;12.78;64.39;100119.02;105434;1264;59960;-53
2023/04/14 11:12:23;;;;;;;12.00;8.40;;;;;;;12.69;64.26;100120.60;105012;1264;64218;-54
2023/04/14 11:15:02;;;;;;;14.20;8.50;;;;;;;12.67;64.37;100126.41;104889;1261;62963;-54
2023/04/14 11:17:36;;;;;;;12.40;9.30;;;;;;;12.70;64.45;100127.65;106611;1263;65223;-55
2023/04/14 11:20:18;;;;;;;12.20;9.10;;;;;;;12.72;64.69;100131.43;105706;1261;59571;-55
2023/04/14 11:22:52;;;;;;;14.80;9.10;;;;;;;12.73;64.83;100137.31;106150;1262;59679;-52
2023/04/14 11:25:21;;;;;;;11.10;8.10;;;;;;;12.74;64.71;100140.20;104839;1266;65113;-53
2023/04/14 11:27:52;;;;;;;12.70;8.70;;;;;;;12.74;64.77;100141.23;106147;1264;62965;-53
2023/04/14 11:30:22;;;;;;;12.30;8.30;;;;;;;12.74;64.74;100138.39;105452;1257;65020;-54
2023/04/14 11:32:56;;;;;;;10.90;8.10;;;;;;;12.80;64.82;100138.54;105465;1253;59731;-54